• Join FlightAware (Why Join?)
  • Login
  • US Flag 
12:04PM EST


 

Airport Tracker/Info


-or-


 

Live Flight TrackerFlight Track Log ✈ GJS3710 ✈ 26-May-2013 ✈ KORD - KMLI

Flight Track Log - Related Links

Times and Time Zones

All times are in EDT time to prevent confusion due to time zone crossing. See the GJS3710 flight status page for this flight to view local times or setup timezone preferences in your user account.

Time Position Orientation Groundspeed Altitude Reporting Facility
EDT Latitude Longitude Course Direction KTS MPH feet Rate Location/Type
08:46PM 41.9233 -87.9397 270° West 180 207 2,700  Level Chicago Center
08:47PM 41.9133 -88.0203 261° West 234 269 5,000 2,460 Climbing Chicago Center
08:48PM 41.9100 -88.1122 267° West 245 282 7,800 2,760 Climbing Chicago Center
08:49PM 41.8897 -88.2322 257° West 278 320 10,700 2,400 Climbing Chicago Center
08:50PM 41.8700 -88.3406 256° West 296 341 12,700 1,980 Climbing Chicago Center
08:51PM 41.9667 -88.5097 270° West  Level FlightAware Approximate
08:51PM 41.8478 -88.4561 256° West 319 367 14,800  Level Chicago Center
08:52PM 41.8267 -88.5772 257° West 333 383 16,000 540 Climbing Chicago Center
08:53PM 41.8033 -88.6989 256° West 340 391 16,000  Level Chicago Center
08:54PM 41.7811 -88.8189 256° West 337 388 16,100  Climbing Chicago Center
08:55PM 41.7594 -88.9378 256° West 332 382 16,100  Level Chicago Center
08:56PM 41.7314 -89.0822 255° West 336 387 16,100  Level Chicago Center
08:57PM 41.7094 -89.2019 256° West 335 386 16,100  Level Chicago Center
08:58PM 41.6864 -89.3211 256° West 334 384 16,100 -60 Level Chicago Center
08:59PM 41.6647 -89.4383 256° West 330 380 16,000 -600 Descending Chicago Center
09:00PM 41.6419 -89.5553 255° West 327 376 14,900 -1,200 Descending Chicago Center
09:01PM 41.6169 -89.6711 254° West 325 374 13,600 -1,320 Descending Chicago Center
09:02PM 41.6058 -89.7861 263° West 315 362 12,300 -1,320 Descending Chicago Center
09:03PM 41.6033 -89.8978 268° West 302 348 11,000 -1,440 Descending Chicago Center
09:04PM 41.6019 -90.0028 269° West 285 328 9,400 -1,020 Descending Chicago Center
09:06PM 41.6292 -90.0975 291° West 273 314 9,000 -240 Descending Chicago Center
09:07PM 41.6628 -90.1892 296° West 275 316 9,000 -420 Level Chicago Center
09:08PM 41.7028 -90.2967 297° West 269 310 8,200 -1,140 Descending Chicago Center
09:09PM 41.7147 -90.3856 280° West 258 297 6,800 -1,380 Descending Chicago Center
09:10PM 41.7017 -90.4772 259° West 252 290 5,500 -1,140 Descending Chicago Center
09:11PM 41.6753 -90.5614 247° West 250 288 4,500 -960 Descending Chicago Center
09:12PM 41.6300 -90.6233 226° Southwest 247 284 3,600 -780 Descending Chicago Center
09:13PM 41.5728 -90.6708 212° Southwest 249 287 3,000 -600 Descending Chicago Center